METAR Data
IDs: Format: Raw Decoded Include TAF

Data at: 2158 UTC 18 Sep 2018

KMWL 182153Z AUTO 17005KT 10SM BKN065 34/19 A2990 RMK AO2 SLP111 T03390194
KMWL 182053Z AUTO 17007KT 10SM FEW070 SCT100 32/20 A2992 RMK AO2 SLP116 T03220200 56023
KMWL 181953Z AUTO 19012KT 10SM FEW055 33/19 A2994 RMK AO2 SLP122 T03330194
KMWL 181853Z AUTO 15008KT 10SM SCT055 33/21 A2996 RMK AO2 SLP131 T03330206
KMWL 181753Z AUTO 20008KT 10SM FEW048 32/20 A2999 RMK AO2 SLP140 T03220200 10328 20217 58008
KMWL 181653Z AUTO 21008KT 10SM CLR 32/21 A3001 RMK AO2 SLP148 T03170206
KMWL 181553Z AUTO 21007KT 10SM CLR 31/21 A3002 RMK AO2 SLP151 T03060211
KMWL 181453Z AUTO 22007KT 10SM CLR 28/21 A3001 RMK AO2 SLP149 T02830211 51006
KMWL 181353Z AUTO 00000KT 10SM CLR 26/21 A3001 RMK AO2 SLP149 T02560211
KMWL 181253Z AUTO 00000KT 10SM CLR 23/20 A3001 RMK AO2 SLP148 T02280200
KMWL 181153Z AUTO 15004KT 10SM CLR 22/20 A3000 RMK AO2 SLP143 T02170200 10239 20217 53008
KMWL 181053Z AUTO 13004KT 10SM CLR 22/20 A2999 RMK AO2 SLP139 T02220200
KMWL 180953Z AUTO 00000KT 10SM CLR 22/20 A2998 RMK AO2 SLP136 T02220200
KMWL 180853Z AUTO 15003KT 10SM CLR 23/20 A2997 RMK AO2 SLP134 T02330200 58003
KMWL 180753Z AUTO 16005KT 10SM CLR 23/21 A2998 RMK AO2 SLP136 T02330206
KMWL 180653Z AUTO 13004KT 10SM CLR 23/21 A2998 RMK AO2 SLP137 T02330206
KMWL 180553Z AUTO 13006KT 10SM CLR 24/21 A2998 RMK AO2 SLP137 T02390206 10311 20239 403330222 51006
KMWL 180453Z AUTO 14007KT 10SM CLR 24/20 A2998 RMK AO2 SLP136 T02440200
KMWL 180353Z AUTO 14007KT 10SM CLR 24/20 A2997 RMK AO2 SLP134 T02440200 TSNO
KMWL 180253Z AUTO 15005KT 10SM CLR 26/20 A2996 RMK AO2 SLP132 T02560200 53015 TSNO
KMWL 180153Z AUTO 17005KT 10SM CLR 27/19 A2994 RMK AO2 SLP125 T02720189
KMWL 180053Z AUTO 16004KT 10SM CLR 28/19 A2992 RMK AO2 SLP119 T02830194
KMWL 172353Z AUTO 18003KT 10SM CLR 31/19 A2992 RMK AO2 SLP117 T03110189 10333 20311 56008
KMWL 172253Z AUTO 18006KT 10SM CLR 33/18 A2992 RMK AO2 SLP117 T03280178
KMWL 172153Z AUTO 19008G19KT 10SM CLR 33/18 A2993 RMK AO2 SLP120 T03330183
KMWL 172053Z AUTO 20006KT 10SM FEW060 32/18 A2994 RMK AO2 SLP124 T03220183 56021
KMWL 171953Z AUTO 17008KT 10SM CLR 33/18 A2996 RMK AO2 SLP131 T03280183
KMWL 171853Z AUTO 22008KT 10SM CLR 32/18 A2998 RMK AO2 SLP138 T03220183
KMWL 171753Z AUTO 10SM CLR 32/19 A3000 RMK AO2 SLP145 T03170189 10317 20222 58002
KMWL 171653Z AUTO 19010KT 10SM CLR 31/21 A3002 RMK AO2 SLP150 T03110206
KMWL 171553Z AUTO 23006KT 10SM CLR 30/20 A3002 RMK AO2 SLP151 T03000200
KMWL 171453Z AUTO 20003KT 10SM CLR 27/21 A3001 RMK AO2 SLP148 T02670211 51013
KMWL 171353Z AUTO 00000KT 5SM BR BKN100 24/23 A3000 RMK AO2 SLP145 T02440228
KMWL 171253Z AUTO 17003KT 3SM BR BKN100 23/22 A2999 RMK AO2 SLP140 T02280217
KMWL 171241Z AUTO 00000KT 3SM BR FEW100 23/22 A2998 RMK AO2 T02280217
KMWL 171233Z AUTO 00000KT 2 1/2SM BR CLR 22/21 A2998 RMK AO2 T02220211
KMWL 171153Z AUTO 00000KT 6SM BR CLR 22/21 A2997 RMK AO2 SLP134 T02220211 10250 20222 53006
KMWL 171053Z AUTO 17003KT 4SM BR CLR 22/21 A2996 RMK AO2 SLP129 T02220211